Relevés horaires Koksijde (Belgique)


Relevés horaires à Koksijde - Mardi 10 Mai 2022
Heure UTC1 Température [°C] Vent [km/h] Hum. [%] Pres.4 [hPa] Visi. [Km] Nébu. [octa] Préc.5 [mm] Cond.
2m. Res. Ros. Dir.2 Vit. Moy. Raf.3
23:00 13.0 13.0 7.0 SO 3.7 -- 9.3 67 1014.2(-0.6/3h) 20 -- -- --
22:00 13.3 13.3 6.9 SSO 5.6 -- 9.3 65 1014.3(-0.5/3h) 20 -- -- --
21:00 14.0 14.0 6.1 OSO 5.6 -- 14.8 59 1014.8(-0.5/3h) 20 -- -- --
20:00 14.6 14.5 6.7 OSO 7.4 -- 13.0 59 1015(-0.7/3h) 20 -- -- --
19:00 15.8 15.8 8.8 SO 7.4 -- 14.8 63 1015(-0.8/3h) 20 -- -- --
18:00 16.5 16.5 10.8 SO 7.4 -- 22.2 69 1015.3(-0.8/3h) 20 -- -- --
17:00 16.3 16.2 11.9 O 9.3 -- 20.4 75 1015.7(-0.6/3h) 20 -- -- --
16:00 17.8 17.8 10.4 OSO 11.1 -- 18.5 62 1015.7(-0.6/3h) 20 -- -- --
15:00 17.7 17.6 9.0 OSO 13.0 -- 22.2 57 1016.2(-0.4/3h) 20 -- -- --
14:00 18.8 18.8 7.1 OSO 11.1 -- 20.4 46 1016.2(-0.7/3h) 20 7/8 -- --
13:00 19.8 19.8 6.8 SO 13.0 -- 22.2 43 1016.3(-0.8/3h) 20 7/8 -- --
12:00 20.0 20.0 8.4 SO 11.1 -- 22.2 47 1016.7(0.5/3h) 20 8/8 -- --
11:00 18.1 18.1 10.4 SO 9.3 -- 18.5 61 1017.1(0.1/3h) 20 8/8 -- --
10:00 18.4 18.4 10.6 OSO 11.1 -- 18.5 60 1017.2(0.1/3h) 20 8/8 -- --
09:00 18.3 18.3 11.1 OSO 9.3 -- 16.7 63 1017.2(0.1/3h) 20 7/8 -- --
08:00 17.5 17.5 11.2 SO 7.4 -- 14.8 67 1017.1(0.0/3h) 20 8/8 -- --
07:00 17.0 17.0 10.3 SO 7.4 -- 11.1 65 1017.2(0.0/3h) 20 8/8 -- --
06:00 16.3 16.3 9.4 SSO 7.4 -- 13.0 64 1017.1(-0.5/3h) 20 8/8 -- --
05:00 16.1 16.1 8.9 S 7.4 -- 13.0 62 1017.1(-1.0/3h) 20 8/8 -- --
04:00 16.2 16.2 8.7 S 7.4 -- 13.0 61 1017.2(-1.8/3h) 20 -- -- --
03:00 16.1 16.1 8.6 SSE 7.4 -- 11.1 61 1017.7(-2.0/3h) 18 -- -- --
02:00 15.3 15.3 8.6 SSE 5.6 -- 11.1 64 1018.1(-2.4/3h) 17 -- -- --
01:00 15.3 15.3 8.2 SSE 7.4 -- 9.3 63 1019.1(-2.1/3h) 14 -- -- --
00:00 14.7 14.6 8.0 SSE 7.4 -- 9.3 64 1019.7(-1.9/3h) 19 -- -- --

1 Coordinated Universal Time. Actuellement il est 11:00 locale et 09:00 UTC.

2 Le vent souffle depuis la direction indiquée vers la direction oposée.

3 Les rafales max. sont disponible 40 min après l'heure du relevé.

4 Pour les stations d'altitude (plus de 600m) le géopotentiel du niveau le plus proche de la pression obligatoire est indiqué.

5 Les stations disposant d'un diffuseur peuvent indiquer "trace". Cela signifie que des précipitations ont touchés le sol mais que la quantité est inférieure à 0.1 mm.

Récapitulatif de la journée
Température [°C] Vent [km/h] Ensoleillement4 [h] Precipitations totale5 [mm] Pression [Hpa]
Min1 Max.2 Moy.3 Max. Min Max.
11.4 20.3 0 22.2 0 h 0 min 0 1014.2 1019.7

1 Température minimale relevée entre 18:00 UTC la veille et 18:00 UTC le jour donné.

2 Température maximale relevée entre 06:00 UTC le jour donné et 06:00 UTC le lendemain.

3 Vent moyen de la journée basé sur les relevés horaires.

4 Ensoleillement en heures relevé entre 06:00 UTC la veille et 06:00 UTC le jour donné.

5 Précipitations totales tombées entre 06:00 UTC la jour donné et 06:00 UTC le lendemain.

Graphiques horaires